createdAt,value
2022-10-07T00:01:11.040Z,101868.88
2022-10-07T00:03:39.293Z,101861.94
2022-10-07T00:06:20.358Z,101867.16
2022-10-07T00:08:52.283Z,101862.75
2022-10-07T00:11:28.236Z,101868.00
2022-10-07T00:13:59.224Z,101866.19
2022-10-07T00:16:30.642Z,101874.84
2022-10-07T00:19:01.512Z,101862.72
2022-10-07T00:21:31.414Z,101867.84
2022-10-07T00:24:00.290Z,101867.84
2022-10-07T00:26:30.600Z,101864.28
2022-10-07T00:28:58.736Z,101872.03
2022-10-07T00:31:29.258Z,101869.50
2022-10-07T00:33:57.777Z,101866.97
2022-10-07T00:36:30.202Z,101864.38
2022-10-07T00:39:00.846Z,101863.47
2022-10-07T00:41:37.454Z,101865.13
2022-10-07T00:44:36.917Z,101853.16
2022-10-07T00:47:13.390Z,101862.69
2022-10-07T00:50:06.523Z,101866.09
2022-10-07T00:52:44.345Z,101860.78
2022-10-07T00:55:17.026Z,101862.41
2022-10-07T00:57:48.310Z,101866.63
2022-10-07T01:00:17.228Z,101867.44
2022-10-07T01:02:45.351Z,101869.19
2022-10-07T01:05:14.312Z,101864.75
2022-10-07T01:07:46.388Z,101861.25
2022-10-07T01:10:18.728Z,101861.34
2022-10-07T01:13:36.694Z,101866.41
2022-10-07T01:16:53.767Z,101856.88
2022-10-07T01:19:52.116Z,101857.94
2022-10-07T01:23:23.770Z,101869.88
2022-10-07T01:26:14.932Z,101861.03
2022-10-07T01:28:51.711Z,101861.03
2022-10-07T01:31:25.264Z,101867.91
2022-10-07T01:33:56.161Z,101862.66
2022-10-07T01:36:26.701Z,101866.97
2022-10-07T01:39:02.578Z,101857.44
2022-10-07T01:41:32.276Z,101859.97
2022-10-07T01:44:01.534Z,101862.47
2022-10-07T01:46:30.640Z,101867.63
2022-10-07T01:49:01.584Z,101866.75
2022-10-07T01:51:33.850Z,101866.66
2022-10-07T01:54:16.197Z,101870.91
2022-10-07T01:57:10.060Z,101863.94
2022-10-07T01:59:40.905Z,101873.47
2022-10-07T02:02:52.127Z,101865.63
2022-10-07T02:06:01.517Z,101865.63
2022-10-07T02:08:39.528Z,101873.34
2022-10-07T02:11:15.984Z,101870.72
2022-10-07T02:14:02.915Z,101865.53
2022-10-07T02:16:51.032Z,101865.53
2022-10-07T02:19:28.542Z,101858.47
2022-10-07T02:21:58.369Z,101866.25
2022-10-07T02:24:30.884Z,101865.34
2022-10-07T02:27:02.285Z,101867.22
2022-10-07T02:29:34.082Z,101872.25
2022-10-07T02:32:06.461Z,101867.13
2022-10-07T02:34:36.588Z,101861.94
2022-10-07T02:37:14.814Z,101860.19
2022-10-07T02:39:44.722Z,101861.03
2022-10-07T02:42:39.954Z,101868.81
2022-10-07T02:45:31.755Z,101871.41
2022-10-07T02:48:04.342Z,101871.34
2022-10-07T02:50:39.992Z,101871.25
2022-10-07T02:53:13.689Z,101884.22
2022-10-07T02:55:44.358Z,101873.00
2022-10-07T02:58:14.200Z,101868.78
2022-10-07T03:00:47.585Z,101873.91
2022-10-07T03:03:17.023Z,101876.50
2022-10-07T03:06:00.749Z,101871.41
2022-10-07T03:08:30.579Z,101879.88
2022-10-07T03:10:59.273Z,101871.41
2022-10-07T03:13:27.052Z,101870.19
2022-10-07T03:15:59.760Z,101870.88
2022-10-07T03:18:30.036Z,101870.75
2022-10-07T03:21:16.552Z,101869.00
2022-10-07T03:23:45.133Z,101860.34
2022-10-07T03:26:13.520Z,101861.25
2022-10-07T03:28:41.437Z,101864.84
2022-10-07T03:31:11.924Z,101864.91
2022-10-07T03:33:45.673Z,101865.78
2022-10-07T03:36:13.694Z,101858.91
2022-10-07T03:38:44.316Z,101861.53
2022-10-07T03:41:13.305Z,101857.94
2022-10-07T03:43:41.136Z,101864.78
2022-10-07T03:46:10.686Z,101861.31
2022-10-07T03:48:39.543Z,101857.81
2022-10-07T03:51:08.169Z,101854.31
2022-10-07T03:53:41.516Z,101850.88
2022-10-07T03:56:09.325Z,101855.34
2022-10-07T03:58:39.378Z,101857.75
2022-10-07T04:01:12.440Z,101854.31
2022-10-07T04:03:46.338Z,101850.81
2022-10-07T04:06:14.687Z,101848.28
2022-10-07T04:08:43.676Z,101845.69
2022-10-07T04:11:12.305Z,101843.09
2022-10-07T04:13:42.995Z,101837.94
2022-10-07T04:16:11.317Z,101840.41
2022-10-07T04:18:41.992Z,101839.53
2022-10-07T04:21:11.549Z,101837.84
2022-10-07T04:23:41.472Z,101842.94
2022-10-07T04:26:12.061Z,101840.44
2022-10-07T04:28:44.025Z,101844.72
2022-10-07T04:31:14.902Z,101834.28
2022-10-07T04:33:46.573Z,101835.28
2022-10-07T04:36:20.116Z,101831.72
2022-10-07T04:38:53.158Z,101832.53
2022-10-07T04:41:26.512Z,101836.03
2022-10-07T04:43:57.680Z,101843.09
2022-10-07T04:46:28.591Z,101840.44
2022-10-07T04:49:05.704Z,101834.44
2022-10-07T04:51:33.646Z,101830.00
2022-10-07T04:54:02.127Z,101837.78
2022-10-07T04:56:36.284Z,101837.78
2022-10-07T04:59:07.066Z,101827.63
2022-10-07T05:01:37.001Z,101824.97
2022-10-07T05:04:05.116Z,101832.84
2022-10-07T05:06:34.166Z,101826.84
2022-10-07T05:09:02.255Z,101825.31
2022-10-07T05:11:34.006Z,101828.84
2022-10-07T05:14:08.372Z,101828.94
2022-10-07T05:16:37.450Z,101834.22
2022-10-07T05:19:06.345Z,101834.22
2022-10-07T05:21:34.229Z,101834.28
2022-10-07T05:24:04.594Z,101826.13
2022-10-07T05:26:36.485Z,101829.56
2022-10-07T05:29:06.981Z,101829.56
2022-10-07T05:31:45.550Z,101832.19
2022-10-07T05:34:16.596Z,101837.38
2022-10-07T05:36:44.882Z,101839.28
2022-10-07T05:39:14.665Z,101833.41
2022-10-07T05:41:55.713Z,101830.19
2022-10-07T05:44:29.582Z,101835.56
2022-10-07T05:46:58.984Z,101834.97
2022-10-07T05:49:27.937Z,101839.44
2022-10-07T05:51:56.363Z,101845.53
2022-10-07T05:54:24.864Z,101841.38
2022-10-07T05:56:54.955Z,101839.75
2022-10-07T05:59:24.099Z,101850.19
2022-10-07T06:01:52.241Z,101843.41
2022-10-07T06:04:22.346Z,101843.59
2022-10-07T06:06:52.884Z,101842.22
2022-10-07T06:09:39.585Z,101844.03
2022-10-07T06:12:31.824Z,101847.88
2022-10-07T06:15:04.181Z,101850.34
2022-10-07T06:17:32.182Z,101846.84
2022-10-07T06:20:02.394Z,101852.75
2022-10-07T06:22:30.466Z,101852.25
2022-10-07T06:25:01.039Z,101855.66
2022-10-07T06:27:30.249Z,101855.91
2022-10-07T06:29:58.151Z,101858.16
2022-10-07T06:32:25.880Z,101864.44
2022-10-07T06:34:54.261Z,101863.72
2022-10-07T06:37:22.895Z,101861.38
2022-10-07T06:39:51.070Z,101864.78
2022-10-07T06:42:18.936Z,101866.38
2022-10-07T06:45:19.007Z,101862.00
2022-10-07T06:47:48.923Z,101869.25
2022-10-07T06:50:16.933Z,101867.81
2022-10-07T06:52:44.801Z,101859.56
2022-10-07T06:55:12.796Z,101869.78
2022-10-07T06:57:45.608Z,101859.25
2022-10-07T07:00:15.333Z,101868.31
2022-10-07T07:02:44.911Z,101869.94
2022-10-07T07:05:16.446Z,101867.25
2022-10-07T07:07:46.452Z,101865.00
2022-10-07T07:10:15.062Z,101870.63
2022-10-07T07:12:46.890Z,101863.63
2022-10-07T07:15:15.277Z,101866.78
2022-10-07T07:17:43.368Z,101865.88
2022-10-07T07:20:13.391Z,101868.50
2022-10-07T07:22:42.089Z,101861.59
2022-10-07T07:25:11.169Z,101860.81
2022-10-07T07:27:39.414Z,101861.28
2022-10-07T07:30:09.354Z,101857.97
2022-10-07T07:32:37.147Z,101855.72
2022-10-07T07:35:05.614Z,101854.75
2022-10-07T07:37:33.948Z,101852.91
2022-10-07T07:40:01.973Z,101862.44
2022-10-07T07:42:31.818Z,101854.22
2022-10-07T07:45:00.993Z,101856.72
2022-10-07T07:47:29.856Z,101855.72
2022-10-07T07:49:57.978Z,101859.31
2022-10-07T07:52:30.715Z,101862.00
2022-10-07T07:55:02.643Z,101858.03
2022-10-07T07:57:31.554Z,101864.22
2022-10-07T08:00:05.662Z,101857.88
2022-10-07T08:02:42.268Z,101860.59
2022-10-07T08:05:14.714Z,101855.53
2022-10-07T08:07:42.458Z,101850.97
2022-10-07T08:10:11.578Z,101860.50
2022-10-07T08:12:40.280Z,101862.00
2022-10-07T08:15:10.841Z,101859.88
2022-10-07T08:17:39.990Z,101861.50
2022-10-07T08:20:10.797Z,101859.38
2022-10-07T08:22:39.538Z,101854.41
2022-10-07T08:25:08.099Z,101854.16
2022-10-07T08:27:36.150Z,101847.94
2022-10-07T08:30:04.397Z,101846.19
2022-10-07T08:32:32.528Z,101834.59
2022-10-07T08:35:00.266Z,101836.00
2022-10-07T08:37:28.318Z,101834.88
2022-10-07T08:39:56.251Z,101825.78
2022-10-07T08:42:40.346Z,101825.44
2022-10-07T08:45:14.671Z,101830.03
2022-10-07T08:47:47.646Z,101822.97
2022-10-07T08:50:45.065Z,101825.88
2022-10-07T08:53:21.107Z,101815.34
2022-10-07T08:55:53.943Z,101816.22
2022-10-07T08:58:44.908Z,101818.84
2022-10-07T09:01:34.206Z,101815.22
2022-10-07T09:04:35.030Z,101811.66
2022-10-07T09:07:10.682Z,101807.25
2022-10-07T09:09:41.146Z,101804.69
2022-10-07T09:12:22.835Z,101804.69
2022-10-07T09:14:55.767Z,101804.16
2022-10-07T09:17:58.616Z,101799.41
2022-10-07T09:20:39.223Z,101795.78
2022-10-07T09:23:12.760Z,101791.97
2022-10-07T09:25:41.522Z,101784.91
2022-10-07T09:28:15.054Z,101791.41
2022-10-07T09:30:43.754Z,101789.16
2022-10-07T09:33:18.597Z,101779.38
2022-10-07T09:35:57.540Z,101777.75
2022-10-07T09:38:47.442Z,101775.59
2022-10-07T09:41:32.783Z,101766.88
2022-10-07T09:44:12.415Z,101765.53
2022-10-07T09:46:57.312Z,101769.22
2022-10-07T09:49:31.576Z,101758.47
2022-10-07T09:52:06.200Z,101750.22
2022-10-07T09:54:36.611Z,101753.09
2022-10-07T09:57:06.181Z,101746.84
2022-10-07T09:59:36.272Z,101740.53
2022-10-07T10:02:22.851Z,101739.75
2022-10-07T10:04:53.735Z,101736.06
2022-10-07T10:07:36.322Z,101732.56
2022-10-07T10:10:27.237Z,101725.22
2022-10-07T10:12:58.164Z,101715.75
2022-10-07T10:15:41.180Z,101712.44
2022-10-07T10:18:27.736Z,101707.72
2022-10-07T10:20:55.910Z,101710.44
2022-10-07T10:23:36.927Z,101695.28
2022-10-07T10:26:30.827Z,101690.66
2022-10-07T10:29:31.801Z,101686.06
2022-10-07T10:32:02.743Z,101688.66
2022-10-07T10:34:50.286Z,101684.09
2022-10-07T10:37:26.705Z,101684.53
2022-10-07T10:40:09.414Z,101686.59
2022-10-07T10:42:50.638Z,101673.34
2022-10-07T10:45:18.445Z,101673.31
2022-10-07T10:48:24.388Z,101664.84
2022-10-07T10:51:11.627Z,101655.25
2022-10-07T10:53:56.768Z,101649.09
2022-10-07T10:56:34.336Z,101649.53
2022-10-07T10:59:16.336Z,101652.16
2022-10-07T11:01:50.719Z,101635.59
2022-10-07T11:04:45.390Z,101627.78
2022-10-07T11:07:21.804Z,101626.44
2022-10-07T11:09:55.266Z,101597.63
2022-10-07T11:12:29.203Z,101616.81
2022-10-07T11:15:16.328Z,101612.56
2022-10-07T11:17:47.522Z,101612.88
2022-10-07T11:20:42.269Z,101598.09
2022-10-07T11:23:31.027Z,101599.31
2022-10-07T11:26:23.071Z,101583.53
2022-10-07T11:28:51.968Z,101583.69
2022-10-07T11:31:36.973Z,101577.22
2022-10-07T11:34:07.566Z,101574.28
2022-10-07T11:36:41.365Z,101570.28
2022-10-07T11:39:09.647Z,101570.91
2022-10-07T11:41:52.681Z,101560.75
2022-10-07T11:44:47.567Z,101541.88
2022-10-07T11:47:21.438Z,101531.25
2022-10-07T11:50:28.003Z,101537.19
2022-10-07T11:53:02.660Z,101534.22
2022-10-07T11:55:44.221Z,101528.44
2022-10-07T11:58:32.019Z,101531.56
2022-10-07T12:01:28.871Z,101517.59
2022-10-07T12:04:19.159Z,101510.72
2022-10-07T12:07:24.061Z,101499.41
2022-10-07T12:10:03.716Z,101500.50
2022-10-07T12:12:44.734Z,101495.97
2022-10-07T12:15:33.098Z,101488.31
2022-10-07T12:18:06.023Z,101481.91
2022-10-07T12:20:58.672Z,101485.47
2022-10-07T12:23:26.548Z,101481.75
2022-10-07T12:26:02.626Z,101478.56
2022-10-07T12:28:48.734Z,101479.63
2022-10-07T12:31:17.918Z,101470.50
2022-10-07T12:33:56.437Z,101464.09
2022-10-07T12:36:25.458Z,101479.63
2022-10-07T12:39:01.004Z,101473.53
2022-10-07T12:41:47.383Z,101467.94
2022-10-07T12:44:38.569Z,101464.00
2022-10-07T12:47:16.240Z,101453.75
2022-10-07T12:49:59.121Z,101457.84
2022-10-07T12:52:53.452Z,101450.50
2022-10-07T12:55:37.212Z,101447.38
2022-10-07T12:58:53.198Z,101430.31
2022-10-07T13:01:52.713Z,101428.75
2022-10-07T13:04:39.194Z,101435.38
2022-10-07T13:07:21.648Z,101417.69
2022-10-07T13:10:08.083Z,101421.13
2022-10-07T13:13:10.996Z,101418.19
2022-10-07T13:16:27.491Z,101410.16
2022-10-07T13:19:06.328Z,101401.31
2022-10-07T13:21:39.668Z,101409.38
2022-10-07T13:24:16.732Z,101396.28
2022-10-07T13:26:46.540Z,101391.91
2022-10-07T13:29:25.459Z,101390.38
2022-10-07T13:32:11.748Z,101384.16
2022-10-07T13:34:40.179Z,101379.22
2022-10-07T13:37:28.493Z,101382.72
2022-10-07T13:40:16.088Z,101373.06
2022-10-07T13:42:44.512Z,101367.53
2022-10-07T13:45:16.036Z,101355.91
2022-10-07T13:47:46.921Z,101355.16
2022-10-07T13:50:26.883Z,101357.41
2022-10-07T13:52:56.128Z,101347.53
2022-10-07T13:55:28.639Z,101349.59
2022-10-07T13:57:58.464Z,101343.34
2022-10-07T14:00:29.650Z,101339.06
2022-10-07T14:02:57.981Z,101338.53
2022-10-07T14:05:28.577Z,101328.78
2022-10-07T14:08:11.332Z,101324.34
2022-10-07T14:10:57.285Z,101314.75
2022-10-07T14:13:28.973Z,101315.75
2022-10-07T14:15:58.506Z,101309.38
2022-10-07T14:18:32.026Z,101312.44
2022-10-07T14:21:16.967Z,101302.75
2022-10-07T14:23:48.773Z,101302.53
2022-10-07T14:26:18.023Z,101294.28
2022-10-07T14:28:45.857Z,101292.88
2022-10-07T14:31:38.601Z,101278.44
2022-10-07T14:34:38.816Z,101285.53
2022-10-07T14:37:18.624Z,101281.50
2022-10-07T14:39:49.607Z,101270.75
2022-10-07T14:42:18.137Z,101258.28
2022-10-07T14:44:46.730Z,101261.88
2022-10-07T14:47:21.082Z,101257.50
2022-10-07T14:49:48.862Z,101258.28
2022-10-07T14:52:44.566Z,101251.59
2022-10-07T14:55:23.532Z,101247.03
2022-10-07T14:57:52.616Z,101238.94
2022-10-07T15:00:25.585Z,101230.50
2022-10-07T15:02:54.644Z,101227.81
2022-10-07T15:05:23.366Z,101232.59
2022-10-07T15:07:51.330Z,101229.28
2022-10-07T15:10:23.651Z,101227.13
2022-10-07T15:12:51.472Z,101218.28
2022-10-07T15:15:19.959Z,101218.00
2022-10-07T15:17:48.096Z,101210.91
2022-10-07T15:20:17.102Z,101212.63
2022-10-07T15:22:45.924Z,101213.22
2022-10-07T15:25:18.057Z,101216.31
2022-10-07T15:27:46.251Z,101208.19
2022-10-07T15:30:14.234Z,101209.38
2022-10-07T15:32:42.152Z,101205.56
2022-10-07T15:35:10.278Z,101204.38
2022-10-07T15:37:37.985Z,101200.13
2022-10-07T15:40:07.636Z,101198.66
2022-10-07T15:42:35.707Z,101194.94
2022-10-07T15:45:03.700Z,101189.22
2022-10-07T15:47:33.309Z,101180.88
2022-10-07T15:50:01.674Z,101182.22
2022-10-07T15:52:30.653Z,101185.56
2022-10-07T15:55:02.579Z,101181.09
2022-10-07T15:57:33.109Z,101185.25
2022-10-07T16:00:02.441Z,101179.31
2022-10-07T16:02:39.868Z,101180.66
2022-10-07T16:05:09.544Z,101178.38
2022-10-07T16:07:37.633Z,101179.41
2022-10-07T16:10:10.713Z,101176.50
2022-10-07T16:12:40.418Z,101184.09
2022-10-07T16:15:08.611Z,101182.03
2022-10-07T16:17:36.263Z,101181.31
2022-10-07T16:20:10.365Z,101185.88
2022-10-07T16:22:39.446Z,101181.72
2022-10-07T16:25:07.345Z,101180.31
2022-10-07T16:27:53.898Z,101177.41
2022-10-07T16:30:40.043Z,101177.78
2022-10-07T16:33:08.585Z,101177.41
2022-10-07T16:35:36.299Z,101174.25
2022-10-07T16:38:04.963Z,101175.28
2022-10-07T16:40:32.677Z,101175.59
2022-10-07T16:43:00.512Z,101174.91
2022-10-07T16:45:28.563Z,101175.72
2022-10-07T16:47:56.999Z,101169.78
2022-10-07T16:50:24.715Z,101172.47
2022-10-07T16:52:52.985Z,101163.78
2022-10-07T16:55:20.869Z,101169.03
2022-10-07T16:57:49.083Z,101160.84
2022-10-07T17:00:17.527Z,101164.31
2022-10-07T17:02:45.492Z,101162.31
2022-10-07T17:05:13.419Z,101154.72
2022-10-07T17:07:41.224Z,101151.38
2022-10-07T17:10:09.604Z,101155.56
2022-10-07T17:12:38.021Z,101152.94
2022-10-07T17:15:06.151Z,101143.56
2022-10-07T17:17:34.143Z,101137.31
2022-10-07T17:20:02.018Z,101132.25
2022-10-07T17:22:30.000Z,101137.72
2022-10-07T17:24:57.948Z,101129.75
2022-10-07T17:27:25.917Z,101134.44
2022-10-07T17:29:55.433Z,101126.75
2022-10-07T17:32:24.206Z,101133.00
2022-10-07T17:34:51.904Z,101131.47
2022-10-07T17:37:19.848Z,101131.72
2022-10-07T17:39:48.174Z,101119.50
2022-10-07T17:42:16.145Z,101117.84
2022-10-07T17:44:43.836Z,101121.56
2022-10-07T17:47:11.842Z,101116.50
2022-10-07T17:49:39.697Z,101115.53
2022-10-07T17:52:07.659Z,101114.59
2022-10-07T17:54:36.019Z,101113.06
2022-10-07T17:57:04.945Z,101112.22
2022-10-07T17:59:32.903Z,101108.06
2022-10-07T18:02:00.709Z,101115.13
2022-10-07T18:04:28.847Z,101108.34
2022-10-07T18:06:58.189Z,101096.19
2022-10-07T18:09:27.509Z,101096.28
2022-10-07T18:12:13.848Z,101094.47
2022-10-07T18:15:00.505Z,101096.22
2022-10-07T18:17:28.721Z,101099.09
2022-10-07T18:19:58.014Z,101090.56
2022-10-07T18:22:25.954Z,101092.66
2022-10-07T18:24:58.482Z,101087.47
2022-10-07T18:27:27.251Z,101087.44
2022-10-07T18:29:55.975Z,101083.84
2022-10-07T18:32:24.560Z,101081.19
2022-10-07T18:34:52.780Z,101085.88
2022-10-07T18:37:20.892Z,101082.59
2022-10-07T18:39:48.558Z,101084.31
2022-10-07T18:42:16.700Z,101079.03
2022-10-07T18:44:44.361Z,101069.50
2022-10-07T18:47:12.300Z,101068.59
2022-10-07T18:49:40.244Z,101071.38
2022-10-07T18:52:08.084Z,101081.09
2022-10-07T18:54:35.761Z,101080.47
2022-10-07T18:57:04.002Z,101080.41
2022-10-07T18:59:31.717Z,101081.34
2022-10-07T19:01:59.637Z,101075.41
2022-10-07T19:04:28.861Z,101080.63
2022-10-07T19:06:56.611Z,101079.88
2022-10-07T19:09:25.430Z,101076.41
2022-10-07T19:11:53.361Z,101078.19
2022-10-07T19:14:25.792Z,101077.19
2022-10-07T19:16:54.255Z,101077.19
2022-10-07T19:19:24.211Z,101075.47
2022-10-07T19:21:54.290Z,101077.34
2022-10-07T19:24:46.033Z,101075.50
2022-10-07T19:27:14.344Z,101072.16
2022-10-07T19:29:42.241Z,101068.66
2022-10-07T19:32:09.956Z,101064.47
2022-10-07T19:34:37.769Z,101061.84
2022-10-07T19:37:06.471Z,101063.59
2022-10-07T19:39:34.454Z,101049.72
2022-10-07T19:42:02.393Z,101058.69
2022-10-07T19:44:30.375Z,101057.06
2022-10-07T19:46:58.226Z,101057.88
2022-10-07T19:49:26.105Z,101049.16
2022-10-07T19:51:53.780Z,101042.09
2022-10-07T19:54:21.691Z,101043.59
2022-10-07T19:56:49.466Z,101040.16
2022-10-07T19:59:17.167Z,101041.44
2022-10-07T20:01:47.493Z,101043.38
2022-10-07T20:04:18.712Z,101040.81
2022-10-07T20:06:47.190Z,101033.66
2022-10-07T20:09:17.427Z,101044.09
2022-10-07T20:11:46.922Z,101030.22
2022-10-07T20:14:16.160Z,101038.72
2022-10-07T20:16:44.456Z,101033.50
2022-10-07T20:19:15.837Z,101033.38
2022-10-07T20:21:44.030Z,101032.03
2022-10-07T20:24:16.508Z,101029.22
2022-10-07T20:26:45.096Z,101022.88
2022-10-07T20:29:15.984Z,101018.78
2022-10-07T20:31:45.092Z,101025.78
2022-10-07T20:34:16.341Z,101022.19
2022-10-07T20:36:44.334Z,101020.53
2022-10-07T20:39:38.622Z,101011.28
2022-10-07T20:42:22.235Z,101012.34
2022-10-07T20:44:51.514Z,101013.19
2022-10-07T20:47:21.591Z,101008.63
2022-10-07T20:49:51.250Z,101002.69
2022-10-07T20:52:22.780Z,101001.88
2022-10-07T20:54:51.496Z,101003.50
2022-10-07T20:57:28.694Z,100994.94
2022-10-07T20:59:56.501Z,101000.28
2022-10-07T21:02:25.161Z,100999.50
2022-10-07T21:04:53.640Z,100993.19
2022-10-07T21:07:21.685Z,100988.84
2022-10-07T21:09:49.556Z,100991.47
2022-10-07T21:12:18.371Z,100986.16
2022-10-07T21:14:48.061Z,100987.03
2022-10-07T21:17:16.751Z,100981.81
2022-10-07T21:19:45.025Z,100980.69
2022-10-07T21:22:13.021Z,100977.38
2022-10-07T21:24:40.706Z,100976.56
2022-10-07T21:27:08.675Z,100973.13
2022-10-07T21:29:40.655Z,100976.22
2022-10-07T21:32:10.323Z,100964.28
2022-10-07T21:34:38.672Z,100967.09
2022-10-07T21:37:06.538Z,100962.38
2022-10-07T21:39:34.398Z,100955.50
2022-10-07T21:42:02.558Z,100952.16
2022-10-07T21:44:33.351Z,100950.50
2022-10-07T21:47:01.284Z,100947.06
2022-10-07T21:49:29.882Z,100946.94
2022-10-07T21:51:59.436Z,100940.03
2022-10-07T21:54:27.591Z,100933.94
2022-10-07T21:56:55.516Z,100945.44
2022-10-07T21:59:23.843Z,100935.72
2022-10-07T22:01:51.721Z,100932.16
2022-10-07T22:04:20.160Z,100930.34
2022-10-07T22:07:06.551Z,100928.81
2022-10-07T22:09:35.756Z,100917.41
2022-10-07T22:12:03.580Z,100915.97
2022-10-07T22:14:31.561Z,100919.22
2022-10-07T22:16:59.289Z,100921.03
2022-10-07T22:19:26.974Z,100916.03
2022-10-07T22:21:55.379Z,100911.53
2022-10-07T22:24:24.135Z,100905.75
2022-10-07T22:26:52.126Z,100903.13
2022-10-07T22:29:21.725Z,100902.31
2022-10-07T22:31:49.702Z,100896.09
2022-10-07T22:34:36.513Z,100888.47
2022-10-07T22:37:05.542Z,100885.69
2022-10-07T22:39:33.362Z,100884.31
2022-10-07T22:42:01.929Z,100881.38
2022-10-07T22:44:29.660Z,100874.31
2022-10-07T22:46:59.838Z,100870.78
2022-10-07T22:49:30.094Z,100877.97
2022-10-07T22:51:59.941Z,100876.09
2022-10-07T22:54:29.842Z,100872.94
2022-10-07T22:56:57.815Z,100867.84
2022-10-07T22:59:25.592Z,100866.72
2022-10-07T23:01:53.448Z,100867.53
2022-10-07T23:04:21.605Z,100863.28
2022-10-07T23:06:49.589Z,100865.06
2022-10-07T23:09:17.335Z,100857.66
2022-10-07T23:11:45.848Z,100850.13
2022-10-07T23:14:13.952Z,100850.34
2022-10-07T23:16:41.961Z,100845.66
2022-10-07T23:19:10.150Z,100846.63
2022-10-07T23:21:38.038Z,100839.53
2022-10-07T23:24:08.063Z,100839.69
2022-10-07T23:26:36.995Z,100838.84
2022-10-07T23:29:07.563Z,100833.47
2022-10-07T23:31:35.673Z,100827.25
2022-10-07T23:34:04.934Z,100823.03
2022-10-07T23:36:34.825Z,100822.91
2022-10-07T23:39:02.780Z,100819.44
2022-10-07T23:41:32.016Z,100813.59
2022-10-07T23:44:02.231Z,100815.31
2022-10-07T23:46:39.657Z,100810.97
2022-10-07T23:49:07.666Z,100810.28
2022-10-07T23:51:35.352Z,100815.72
2022-10-07T23:54:04.935Z,100801.47
2022-10-07T23:56:33.367Z,100806.28
2022-10-07T23:59:02.504Z,100798.03
